sensor_id;sensor_type;location;lat;lon;timestamp;P1;durP1;ratioP1;P2;durP2;ratioP2
71303;SDS011;59091;47.446;19.148;2024-03-02T00:02:10;39.33;;;22.58;;
71303;SDS011;59091;47.446;19.148;2024-03-02T00:04:36;40.00;;;22.65;;
71303;SDS011;59091;47.446;19.148;2024-03-02T00:07:02;42.05;;;23.52;;
71303;SDS011;59091;47.446;19.148;2024-03-02T00:09:28;40.15;;;23.75;;
71303;SDS011;59091;47.446;19.148;2024-03-02T00:11:54;41.65;;;23.02;;
71303;SDS011;59091;47.446;19.148;2024-03-02T00:14:20;47.55;;;23.45;;
71303;SDS011;59091;47.446;19.148;2024-03-02T00:16:45;37.38;;;22.80;;
71303;SDS011;59091;47.446;19.148;2024-03-02T00:19:11;38.03;;;23.23;;
71303;SDS011;59091;47.446;19.148;2024-03-02T00:21:36;43.75;;;23.63;;
71303;SDS011;59091;47.446;19.148;2024-03-02T00:24:07;40.55;;;22.88;;
71303;SDS011;59091;47.446;19.148;2024-03-02T00:26:44;41.60;;;23.02;;
71303;SDS011;59091;47.446;19.148;2024-03-02T00:29:10;36.22;;;22.90;;
71303;SDS011;59091;47.446;19.148;2024-03-02T00:31:38;46.85;;;23.88;;
71303;SDS011;59091;47.446;19.148;2024-03-02T00:34:04;38.90;;;23.05;;
71303;SDS011;59091;47.446;19.148;2024-03-02T00:36:31;39.88;;;22.80;;
71303;SDS011;59091;47.446;19.148;2024-03-02T00:38:56;42.13;;;24.77;;
71303;SDS011;59091;47.446;19.148;2024-03-02T00:41:26;42.55;;;23.40;;
71303;SDS011;59091;47.446;19.148;2024-03-02T00:43:57;38.63;;;22.98;;
71303;SDS011;59091;47.446;19.148;2024-03-02T00:46:34;37.40;;;23.02;;
71303;SDS011;59091;47.446;19.148;2024-03-02T00:49:02;41.17;;;23.17;;
71303;SDS011;59091;47.446;19.148;2024-03-02T00:51:30;36.70;;;22.60;;
71303;SDS011;59091;47.446;19.148;2024-03-02T00:54:01;39.40;;;21.98;;
71303;SDS011;59091;47.446;19.148;2024-03-02T00:56:29;37.20;;;22.70;;
71303;SDS011;59091;47.446;19.148;2024-03-02T00:58:55;36.00;;;21.40;;
71303;SDS011;59091;47.446;19.148;2024-03-02T01:01:20;41.72;;;21.45;;
71303;SDS011;59091;47.446;19.148;2024-03-02T01:03:46;39.08;;;20.95;;
71303;SDS011;59091;47.446;19.148;2024-03-02T01:06:11;37.55;;;22.27;;
71303;SDS011;59091;47.446;19.148;2024-03-02T01:08:37;35.38;;;21.13;;
71303;SDS011;59091;47.446;19.148;2024-03-02T01:11:03;36.58;;;21.80;;
71303;SDS011;59091;47.446;19.148;2024-03-02T01:13:30;42.63;;;22.17;;
71303;SDS011;59091;47.446;19.148;2024-03-02T01:15:56;39.53;;;21.45;;
71303;SDS011;59091;47.446;19.148;2024-03-02T01:18:21;33.20;;;20.52;;
71303;SDS011;59091;47.446;19.148;2024-03-02T01:20:47;42.17;;;22.73;;
71303;SDS011;59091;47.446;19.148;2024-03-02T01:23:13;39.25;;;21.10;;
71303;SDS011;59091;47.446;19.148;2024-03-02T01:25:38;38.05;;;20.48;;
71303;SDS011;59091;47.446;19.148;2024-03-02T01:28:04;36.28;;;21.33;;
71303;SDS011;59091;47.446;19.148;2024-03-02T01:30:30;34.92;;;20.15;;
71303;SDS011;59091;47.446;19.148;2024-03-02T01:32:55;36.30;;;21.40;;
71303;SDS011;59091;47.446;19.148;2024-03-02T01:35:21;40.17;;;22.95;;
71303;SDS011;59091;47.446;19.148;2024-03-02T01:37:46;45.10;;;23.10;;
71303;SDS011;59091;47.446;19.148;2024-03-02T01:40:12;41.75;;;23.80;;
71303;SDS011;59091;47.446;19.148;2024-03-02T01:42:37;43.88;;;23.42;;
71303;SDS011;59091;47.446;19.148;2024-03-02T01:45:07;35.88;;;21.52;;
71303;SDS011;59091;47.446;19.148;2024-03-02T01:47:33;44.28;;;24.20;;
71303;SDS011;59091;47.446;19.148;2024-03-02T01:49:59;39.72;;;21.67;;
71303;SDS011;59091;47.446;19.148;2024-03-02T01:52:25;33.97;;;21.73;;
71303;SDS011;59091;47.446;19.148;2024-03-02T01:54:50;39.38;;;22.77;;
71303;SDS011;59091;47.446;19.148;2024-03-02T01:57:16;40.35;;;23.55;;
71303;SDS011;59091;47.446;19.148;2024-03-02T01:59:42;38.67;;;21.75;;
71303;SDS011;59091;47.446;19.148;2024-03-02T02:02:07;42.13;;;21.30;;
71303;SDS011;59091;47.446;19.148;2024-03-02T02:04:33;35.90;;;21.40;;
71303;SDS011;59091;47.446;19.148;2024-03-02T02:06:59;39.38;;;21.65;;
71303;SDS011;59091;47.446;19.148;2024-03-02T02:09:25;36.55;;;22.65;;
71303;SDS011;59091;47.446;19.148;2024-03-02T02:11:50;37.30;;;21.30;;
71303;SDS011;59091;47.446;19.148;2024-03-02T02:14:16;39.63;;;22.10;;
71303;SDS011;59091;47.446;19.148;2024-03-02T02:16:42;36.67;;;22.17;;
71303;SDS011;59091;47.446;19.148;2024-03-02T02:19:08;37.00;;;20.92;;
71303;SDS011;59091;47.446;19.148;2024-03-02T02:21:34;32.28;;;19.88;;
71303;SDS011;59091;47.446;19.148;2024-03-02T02:23:59;40.47;;;20.98;;
71303;SDS011;59091;47.446;19.148;2024-03-02T02:26:26;38.95;;;19.50;;
71303;SDS011;59091;47.446;19.148;2024-03-02T02:28:51;31.52;;;19.95;;
71303;SDS011;59091;47.446;19.148;2024-03-02T02:31:17;34.45;;;19.25;;
71303;SDS011;59091;47.446;19.148;2024-03-02T02:33:42;35.90;;;19.27;;
71303;SDS011;59091;47.446;19.148;2024-03-02T02:36:08;34.40;;;20.13;;
71303;SDS011;59091;47.446;19.148;2024-03-02T02:38:36;33.15;;;19.40;;
71303;SDS011;59091;47.446;19.148;2024-03-02T02:41:04;31.80;;;19.20;;
71303;SDS011;59091;47.446;19.148;2024-03-02T02:43:29;37.15;;;19.17;;
71303;SDS011;59091;47.446;19.148;2024-03-02T02:45:55;38.25;;;19.48;;
71303;SDS011;59091;47.446;19.148;2024-03-02T02:48:20;33.75;;;19.67;;
71303;SDS011;59091;47.446;19.148;2024-03-02T02:50:46;30.20;;;18.15;;
71303;SDS011;59091;47.446;19.148;2024-03-02T02:53:11;34.20;;;20.25;;
71303;SDS011;59091;47.446;19.148;2024-03-02T02:55:37;33.75;;;19.52;;
71303;SDS011;59091;47.446;19.148;2024-03-02T02:58:05;36.25;;;19.70;;
71303;SDS011;59091;47.446;19.148;2024-03-02T03:00:33;33.00;;;18.17;;
71303;SDS011;59091;47.446;19.148;2024-03-02T03:02:59;36.28;;;19.75;;
71303;SDS011;59091;47.446;19.148;2024-03-02T03:05:24;35.60;;;18.85;;
71303;SDS011;59091;47.446;19.148;2024-03-02T03:07:50;32.78;;;18.70;;
71303;SDS011;59091;47.446;19.148;2024-03-02T03:10:15;32.70;;;18.30;;
71303;SDS011;59091;47.446;19.148;2024-03-02T03:12:42;39.55;;;19.45;;
71303;SDS011;59091;47.446;19.148;2024-03-02T03:15:08;30.17;;;18.98;;
71303;SDS011;59091;47.446;19.148;2024-03-02T03:17:34;29.58;;;17.65;;
71303;SDS011;59091;47.446;19.148;2024-03-02T03:20:01;36.15;;;19.17;;
71303;SDS011;59091;47.446;19.148;2024-03-02T03:22:27;34.45;;;19.40;;
71303;SDS011;59091;47.446;19.148;2024-03-02T03:24:53;32.60;;;19.20;;
71303;SDS011;59091;47.446;19.148;2024-03-02T03:27:18;39.28;;;19.48;;
71303;SDS011;59091;47.446;19.148;2024-03-02T03:29:44;29.02;;;18.67;;
71303;SDS011;59091;47.446;19.148;2024-03-02T03:32:10;32.17;;;18.92;;
71303;SDS011;59091;47.446;19.148;2024-03-02T03:34:36;32.58;;;19.50;;
71303;SDS011;59091;47.446;19.148;2024-03-02T03:37:01;31.73;;;17.80;;
71303;SDS011;59091;47.446;19.148;2024-03-02T03:39:27;36.78;;;19.75;;
71303;SDS011;59091;47.446;19.148;2024-03-02T03:41:53;34.38;;;19.42;;
71303;SDS011;59091;47.446;19.148;2024-03-02T03:44:19;38.17;;;19.27;;
71303;SDS011;59091;47.446;19.148;2024-03-02T03:46:44;30.88;;;18.25;;
71303;SDS011;59091;47.446;19.148;2024-03-02T03:49:10;33.90;;;19.85;;
71303;SDS011;59091;47.446;19.148;2024-03-02T03:51:35;31.27;;;19.27;;
71303;SDS011;59091;47.446;19.148;2024-03-02T03:54:01;32.92;;;19.27;;
71303;SDS011;59091;47.446;19.148;2024-03-02T03:56:26;35.47;;;19.25;;
71303;SDS011;59091;47.446;19.148;2024-03-02T03:58:52;37.70;;;20.95;;
71303;SDS011;59091;47.446;19.148;2024-03-02T04:01:17;39.30;;;20.17;;
71303;SDS011;59091;47.446;19.148;2024-03-02T04:03:43;36.53;;;20.00;;
71303;SDS011;59091;47.446;19.148;2024-03-02T04:06:08;36.95;;;21.20;;
71303;SDS011;59091;47.446;19.148;2024-03-02T04:08:33;37.13;;;21.17;;
71303;SDS011;59091;47.446;19.148;2024-03-02T04:10:59;38.63;;;21.23;;
71303;SDS011;59091;47.446;19.148;2024-03-02T04:13:24;34.85;;;20.77;;
71303;SDS011;59091;47.446;19.148;2024-03-02T04:15:50;36.05;;;20.88;;
71303;SDS011;59091;47.446;19.148;2024-03-02T04:18:15;39.25;;;21.80;;
71303;SDS011;59091;47.446;19.148;2024-03-02T04:20:41;36.33;;;21.00;;
71303;SDS011;59091;47.446;19.148;2024-03-02T04:23:07;36.47;;;22.05;;
71303;SDS011;59091;47.446;19.148;2024-03-02T04:25:32;40.75;;;22.38;;
71303;SDS011;59091;47.446;19.148;2024-03-02T04:27:58;38.00;;;22.48;;
71303;SDS011;59091;47.446;19.148;2024-03-02T04:30:23;39.80;;;23.42;;
71303;SDS011;59091;47.446;19.148;2024-03-02T04:32:50;43.67;;;22.13;;
71303;SDS011;59091;47.446;19.148;2024-03-02T04:35:15;35.97;;;21.17;;
71303;SDS011;59091;47.446;19.148;2024-03-02T04:37:41;38.60;;;22.63;;
71303;SDS011;59091;47.446;19.148;2024-03-02T04:40:07;43.85;;;22.88;;
71303;SDS011;59091;47.446;19.148;2024-03-02T04:42:33;38.10;;;22.63;;
71303;SDS011;59091;47.446;19.148;2024-03-02T04:44:59;40.63;;;22.27;;
71303;SDS011;59091;47.446;19.148;2024-03-02T04:47:24;43.83;;;24.13;;
71303;SDS011;59091;47.446;19.148;2024-03-02T04:49:50;40.25;;;23.27;;
71303;SDS011;59091;47.446;19.148;2024-03-02T04:52:15;38.75;;;22.33;;
71303;SDS011;59091;47.446;19.148;2024-03-02T04:54:41;40.35;;;23.15;;
71303;SDS011;59091;47.446;19.148;2024-03-02T04:57:25;40.45;;;22.20;;
71303;SDS011;59091;47.446;19.148;2024-03-02T04:59:50;36.70;;;21.98;;
71303;SDS011;59091;47.446;19.148;2024-03-02T05:02:16;41.05;;;22.83;;
71303;SDS011;59091;47.446;19.148;2024-03-02T05:04:41;38.97;;;22.08;;
71303;SDS011;59091;47.446;19.148;2024-03-02T05:07:07;41.70;;;23.48;;
71303;SDS011;59091;47.446;19.148;2024-03-02T05:09:32;40.15;;;22.38;;
71303;SDS011;59091;47.446;19.148;2024-03-02T05:11:58;40.88;;;22.67;;
71303;SDS011;59091;47.446;19.148;2024-03-02T05:17:07;39.85;;;22.05;;
71303;SDS011;59091;47.446;19.148;2024-03-02T05:19:32;40.03;;;23.55;;
71303;SDS011;59091;47.446;19.148;2024-03-02T05:21:58;41.22;;;22.90;;
71303;SDS011;59091;47.446;19.148;2024-03-02T05:24:23;42.13;;;24.17;;
71303;SDS011;59091;47.446;19.148;2024-03-02T05:26:48;37.92;;;23.27;;
71303;SDS011;59091;47.446;19.148;2024-03-02T05:29:14;43.35;;;24.75;;
71303;SDS011;59091;47.446;19.148;2024-03-02T05:31:40;42.25;;;24.40;;
71303;SDS011;59091;47.446;19.148;2024-03-02T05:34:05;42.03;;;24.30;;
71303;SDS011;59091;47.446;19.148;2024-03-02T05:36:31;44.30;;;24.58;;
71303;SDS011;59091;47.446;19.148;2024-03-02T05:38:57;45.55;;;24.75;;
71303;SDS011;59091;47.446;19.148;2024-03-02T05:41:22;46.38;;;24.73;;
71303;SDS011;59091;47.446;19.148;2024-03-02T05:43:47;42.88;;;24.33;;
71303;SDS011;59091;47.446;19.148;2024-03-02T05:46:14;43.03;;;25.02;;
71303;SDS011;59091;47.446;19.148;2024-03-02T05:48:39;45.70;;;25.02;;
71303;SDS011;59091;47.446;19.148;2024-03-02T05:51:05;46.47;;;24.60;;
71303;SDS011;59091;47.446;19.148;2024-03-02T05:53:30;43.40;;;24.80;;
71303;SDS011;59091;47.446;19.148;2024-03-02T05:55:56;39.90;;;24.10;;
71303;SDS011;59091;47.446;19.148;2024-03-02T05:58:22;45.00;;;24.40;;
71303;SDS011;59091;47.446;19.148;2024-03-02T06:01:08;42.65;;;23.85;;
71303;SDS011;59091;47.446;19.148;2024-03-02T06:03:34;44.70;;;23.55;;
71303;SDS011;59091;47.446;19.148;2024-03-02T06:05:59;42.00;;;24.40;;
71303;SDS011;59091;47.446;19.148;2024-03-02T06:08:24;40.40;;;23.63;;
71303;SDS011;59091;47.446;19.148;2024-03-02T06:10:50;44.70;;;23.23;;
71303;SDS011;59091;47.446;19.148;2024-03-02T06:13:15;42.45;;;23.40;;
71303;SDS011;59091;47.446;19.148;2024-03-02T06:15:41;42.35;;;24.38;;
71303;SDS011;59091;47.446;19.148;2024-03-02T06:18:06;39.92;;;22.77;;
71303;SDS011;59091;47.446;19.148;2024-03-02T06:20:32;42.40;;;24.20;;
71303;SDS011;59091;47.446;19.148;2024-03-02T06:22:58;40.38;;;23.05;;
71303;SDS011;59091;47.446;19.148;2024-03-02T06:25:23;39.17;;;23.35;;
71303;SDS011;59091;47.446;19.148;2024-03-02T06:27:49;43.53;;;24.42;;
71303;SDS011;59091;47.446;19.148;2024-03-02T06:30:14;39.67;;;22.75;;
71303;SDS011;59091;47.446;19.148;2024-03-02T06:32:40;45.65;;;24.42;;
71303;SDS011;59091;47.446;19.148;2024-03-02T06:35:05;40.20;;;23.35;;
71303;SDS011;59091;47.446;19.148;2024-03-02T06:37:33;43.60;;;23.70;;
71303;SDS011;59091;47.446;19.148;2024-03-02T06:39:59;40.50;;;23.65;;
71303;SDS011;59091;47.446;19.148;2024-03-02T06:42:24;42.38;;;24.00;;
71303;SDS011;59091;47.446;19.148;2024-03-02T06:44:49;43.75;;;24.33;;
71303;SDS011;59091;47.446;19.148;2024-03-02T06:47:15;33.10;;;19.40;;
71303;SDS011;59091;47.446;19.148;2024-03-02T06:49:41;39.58;;;23.60;;
71303;SDS011;59091;47.446;19.148;2024-03-02T06:52:08;42.30;;;24.48;;
71303;SDS011;59091;47.446;19.148;2024-03-02T06:54:33;43.15;;;25.15;;
71303;SDS011;59091;47.446;19.148;2024-03-02T06:56:59;40.17;;;25.17;;
71303;SDS011;59091;47.446;19.148;2024-03-02T06:59:25;41.72;;;24.90;;
71303;SDS011;59091;47.446;19.148;2024-03-02T07:01:50;40.50;;;23.98;;
71303;SDS011;59091;47.446;19.148;2024-03-02T07:04:16;45.10;;;24.80;;
71303;SDS011;59091;47.446;19.148;2024-03-02T07:06:41;40.50;;;24.42;;
71303;SDS011;59091;47.446;19.148;2024-03-02T07:09:07;40.28;;;23.98;;
71303;SDS011;59091;47.446;19.148;2024-03-02T07:11:35;43.13;;;24.27;;
71303;SDS011;59091;47.446;19.148;2024-03-02T07:14:01;42.28;;;23.52;;
71303;SDS011;59091;47.446;19.148;2024-03-02T07:16:26;39.35;;;23.85;;
71303;SDS011;59091;47.446;19.148;2024-03-02T07:18:54;39.88;;;24.10;;
71303;SDS011;59091;47.446;19.148;2024-03-02T07:21:21;40.72;;;23.30;;
71303;SDS011;59091;47.446;19.148;2024-03-02T07:23:47;39.22;;;22.38;;
71303;SDS011;59091;47.446;19.148;2024-03-02T07:26:13;41.65;;;24.10;;
71303;SDS011;59091;47.446;19.148;2024-03-02T07:28:40;39.25;;;23.80;;
71303;SDS011;59091;47.446;19.148;2024-03-02T07:31:06;47.15;;;25.63;;
71303;SDS011;59091;47.446;19.148;2024-03-02T07:33:32;40.42;;;24.52;;
71303;SDS011;59091;47.446;19.148;2024-03-02T07:35:58;43.75;;;24.77;;
71303;SDS011;59091;47.446;19.148;2024-03-02T07:38:25;42.33;;;23.85;;
71303;SDS011;59091;47.446;19.148;2024-03-02T07:40:52;42.97;;;23.02;;
71303;SDS011;59091;47.446;19.148;2024-03-02T07:43:21;39.05;;;23.88;;
71303;SDS011;59091;47.446;19.148;2024-03-02T07:45:47;40.42;;;23.23;;
71303;SDS011;59091;47.446;19.148;2024-03-02T07:48:13;38.22;;;23.38;;
71303;SDS011;59091;47.446;19.148;2024-03-02T07:50:38;40.88;;;24.15;;
71303;SDS011;59091;47.446;19.148;2024-03-02T07:53:04;38.92;;;22.65;;
71303;SDS011;59091;47.446;19.148;2024-03-02T07:55:30;43.55;;;24.13;;
71303;SDS011;59091;47.446;19.148;2024-03-02T07:57:56;38.03;;;22.77;;
71303;SDS011;59091;47.446;19.148;2024-03-02T08:00:22;40.65;;;23.05;;
71303;SDS011;59091;47.446;19.148;2024-03-02T08:02:48;39.88;;;23.15;;
71303;SDS011;59091;47.446;19.148;2024-03-02T08:05:16;39.55;;;23.38;;
71303;SDS011;59091;47.446;19.148;2024-03-02T08:07:41;39.92;;;22.60;;
71303;SDS011;59091;47.446;19.148;2024-03-02T08:10:08;34.70;;;22.67;;
71303;SDS011;59091;47.446;19.148;2024-03-02T08:12:34;36.13;;;21.98;;
71303;SDS011;59091;47.446;19.148;2024-03-02T08:14:59;39.72;;;23.92;;
71303;SDS011;59091;47.446;19.148;2024-03-02T08:17:25;40.05;;;23.75;;
71303;SDS011;59091;47.446;19.148;2024-03-02T08:19:50;38.45;;;23.52;;
71303;SDS011;59091;47.446;19.148;2024-03-02T08:22:16;39.20;;;23.50;;
71303;SDS011;59091;47.446;19.148;2024-03-02T08:24:41;39.55;;;22.77;;
71303;SDS011;59091;47.446;19.148;2024-03-02T08:27:07;41.22;;;23.52;;
71303;SDS011;59091;47.446;19.148;2024-03-02T08:29:32;41.65;;;23.58;;
71303;SDS011;59091;47.446;19.148;2024-03-02T08:31:58;35.33;;;22.73;;
71303;SDS011;59091;47.446;19.148;2024-03-02T08:34:23;33.97;;;22.17;;
71303;SDS011;59091;47.446;19.148;2024-03-02T08:36:48;40.30;;;22.77;;
71303;SDS011;59091;47.446;19.148;2024-03-02T08:39:14;36.80;;;22.13;;
71303;SDS011;59091;47.446;19.148;2024-03-02T08:41:46;33.45;;;20.98;;
71303;SDS011;59091;47.446;19.148;2024-03-02T08:44:12;39.22;;;21.30;;
71303;SDS011;59091;47.446;19.148;2024-03-02T08:46:39;35.47;;;21.08;;
71303;SDS011;59091;47.446;19.148;2024-03-02T08:49:05;34.17;;;19.50;;
71303;SDS011;59091;47.446;19.148;2024-03-02T08:51:31;34.30;;;20.38;;
71303;SDS011;59091;47.446;19.148;2024-03-02T08:53:57;34.13;;;21.17;;
71303;SDS011;59091;47.446;19.148;2024-03-02T08:56:23;32.70;;;21.20;;
71303;SDS011;59091;47.446;19.148;2024-03-02T08:58:49;35.95;;;22.05;;
71303;SDS011;59091;47.446;19.148;2024-03-02T09:01:15;38.00;;;21.23;;
71303;SDS011;59091;47.446;19.148;2024-03-02T09:03:41;35.15;;;21.10;;
71303;SDS011;59091;47.446;19.148;2024-03-02T09:06:09;35.35;;;21.90;;
71303;SDS011;59091;47.446;19.148;2024-03-02T09:08:35;33.05;;;20.83;;
71303;SDS011;59091;47.446;19.148;2024-03-02T09:11:02;32.17;;;20.05;;
71303;SDS011;59091;47.446;19.148;2024-03-02T09:13:28;32.40;;;18.70;;
71303;SDS011;59091;47.446;19.148;2024-03-02T09:15:54;29.77;;;19.13;;
71303;SDS011;59091;47.446;19.148;2024-03-02T09:18:19;31.63;;;19.83;;
71303;SDS011;59091;47.446;19.148;2024-03-02T09:20:45;28.33;;;18.42;;
71303;SDS011;59091;47.446;19.148;2024-03-02T09:23:11;31.85;;;19.48;;
71303;SDS011;59091;47.446;19.148;2024-03-02T09:25:36;30.52;;;19.08;;
71303;SDS011;59091;47.446;19.148;2024-03-02T09:28:02;29.00;;;19.20;;
71303;SDS011;59091;47.446;19.148;2024-03-02T09:30:29;28.33;;;18.83;;
71303;SDS011;59091;47.446;19.148;2024-03-02T09:32:54;29.42;;;18.38;;
71303;SDS011;59091;47.446;19.148;2024-03-02T09:35:20;29.45;;;19.15;;
71303;SDS011;59091;47.446;19.148;2024-03-02T09:37:45;28.15;;;18.40;;
71303;SDS011;59091;47.446;19.148;2024-03-02T09:40:11;27.48;;;17.52;;
71303;SDS011;59091;47.446;19.148;2024-03-02T09:42:38;28.55;;;17.85;;
71303;SDS011;59091;47.446;19.148;2024-03-02T09:45:04;28.50;;;18.38;;
71303;SDS011;59091;47.446;19.148;2024-03-02T09:47:30;25.83;;;17.52;;
71303;SDS011;59091;47.446;19.148;2024-03-02T09:49:56;27.50;;;17.88;;
71303;SDS011;59091;47.446;19.148;2024-03-02T09:52:24;23.73;;;17.08;;
71303;SDS011;59091;47.446;19.148;2024-03-02T09:54:50;27.52;;;17.92;;
71303;SDS011;59091;47.446;19.148;2024-03-02T09:57:16;26.58;;;17.42;;
71303;SDS011;59091;47.446;19.148;2024-03-02T09:59:42;27.48;;;18.08;;
71303;SDS011;59091;47.446;19.148;2024-03-02T10:02:07;28.67;;;17.58;;
71303;SDS011;59091;47.446;19.148;2024-03-02T10:04:33;25.65;;;17.40;;
71303;SDS011;59091;47.446;19.148;2024-03-02T10:07:13;25.77;;;17.10;;
71303;SDS011;59091;47.446;19.148;2024-03-02T10:09:40;23.88;;;16.50;;
71303;SDS011;59091;47.446;19.148;2024-03-02T10:12:10;24.17;;;16.35;;
71303;SDS011;59091;47.446;19.148;2024-03-02T10:14:37;26.20;;;16.60;;
71303;SDS011;59091;47.446;19.148;2024-03-02T10:17:09;24.38;;;16.02;;
71303;SDS011;59091;47.446;19.148;2024-03-02T10:19:37;24.30;;;16.63;;
71303;SDS011;59091;47.446;19.148;2024-03-02T10:22:04;28.17;;;15.65;;
71303;SDS011;59091;47.446;19.148;2024-03-02T10:24:35;26.92;;;15.75;;
71303;SDS011;59091;47.446;19.148;2024-03-02T10:27:06;25.17;;;16.27;;
71303;SDS011;59091;47.446;19.148;2024-03-02T10:29:41;24.33;;;16.15;;
71303;SDS011;59091;47.446;19.148;2024-03-02T10:32:10;24.45;;;16.10;;
71303;SDS011;59091;47.446;19.148;2024-03-02T10:34:36;21.13;;;14.75;;
71303;SDS011;59091;47.446;19.148;2024-03-02T10:37:03;25.95;;;16.23;;
71303;SDS011;59091;47.446;19.148;2024-03-02T10:39:28;21.02;;;13.98;;
71303;SDS011;59091;47.446;19.148;2024-03-02T10:41:55;19.02;;;14.18;;
71303;SDS011;59091;47.446;19.148;2024-03-02T10:44:22;22.50;;;14.95;;
71303;SDS011;59091;47.446;19.148;2024-03-02T10:46:48;21.40;;;14.63;;
71303;SDS011;59091;47.446;19.148;2024-03-02T10:49:15;18.60;;;13.43;;
71303;SDS011;59091;47.446;19.148;2024-03-02T10:51:42;19.00;;;13.02;;
71303;SDS011;59091;47.446;19.148;2024-03-02T10:54:07;18.70;;;14.32;;
71303;SDS011;59091;47.446;19.148;2024-03-02T10:59:10;18.90;;;12.73;;
71303;SDS011;59091;47.446;19.148;2024-03-02T11:01:38;22.17;;;13.07;;
71303;SDS011;59091;47.446;19.148;2024-03-02T11:04:06;18.58;;;13.43;;
71303;SDS011;59091;47.446;19.148;2024-03-02T11:06:33;16.33;;;11.52;;
71303;SDS011;59091;47.446;19.148;2024-03-02T11:09:05;16.20;;;11.88;;
71303;SDS011;59091;47.446;19.148;2024-03-02T11:11:35;17.33;;;11.43;;
71303;SDS011;59091;47.446;19.148;2024-03-02T11:14:02;15.82;;;11.10;;
71303;SDS011;59091;47.446;19.148;2024-03-02T11:16:34;12.90;;;10.00;;
71303;SDS011;59091;47.446;19.148;2024-03-02T11:19:03;16.15;;;11.23;;
71303;SDS011;59091;47.446;19.148;2024-03-02T11:21:34;16.80;;;10.82;;
71303;SDS011;59091;47.446;19.148;2024-03-02T11:24:00;14.95;;;11.15;;
71303;SDS011;59091;47.446;19.148;2024-03-02T11:26:27;17.20;;;11.18;;
71303;SDS011;59091;47.446;19.148;2024-03-02T11:28:53;16.60;;;10.57;;
71303;SDS011;59091;47.446;19.148;2024-03-02T11:31:19;14.95;;;10.82;;
71303;SDS011;59091;47.446;19.148;2024-03-02T11:33:44;13.10;;;10.75;;
71303;SDS011;59091;47.446;19.148;2024-03-02T11:36:10;15.20;;;10.75;;
71303;SDS011;59091;47.446;19.148;2024-03-02T11:38:35;13.55;;;10.45;;
71303;SDS011;59091;47.446;19.148;2024-03-02T11:41:07;15.90;;;10.82;;
71303;SDS011;59091;47.446;19.148;2024-03-02T11:43:39;16.33;;;11.50;;
71303;SDS011;59091;47.446;19.148;2024-03-02T11:46:06;15.60;;;11.05;;
71303;SDS011;59091;47.446;19.148;2024-03-02T11:48:32;13.63;;;11.13;;
71303;SDS011;59091;47.446;19.148;2024-03-02T11:51:00;15.88;;;10.90;;
71303;SDS011;59091;47.446;19.148;2024-03-02T11:53:26;17.10;;;11.20;;
71303;SDS011;59091;47.446;19.148;2024-03-02T11:55:55;15.57;;;11.00;;
71303;SDS011;59091;47.446;19.148;2024-03-02T11:58:21;15.15;;;11.43;;
71303;SDS011;59091;47.446;19.148;2024-03-02T12:00:52;14.43;;;11.02;;
71303;SDS011;59091;47.446;19.148;2024-03-02T12:03:18;15.65;;;11.38;;
71303;SDS011;59091;47.446;19.148;2024-03-02T12:05:48;14.65;;;11.20;;
71303;SDS011;59091;47.446;19.148;2024-03-02T12:08:14;14.60;;;11.40;;
71303;SDS011;59091;47.446;19.148;2024-03-02T12:10:40;16.02;;;11.40;;
71303;SDS011;59091;47.446;19.148;2024-03-02T12:13:06;16.42;;;12.18;;
71303;SDS011;59091;47.446;19.148;2024-03-02T12:15:35;18.30;;;12.35;;
71303;SDS011;59091;47.446;19.148;2024-03-02T12:18:02;16.10;;;12.07;;
71303;SDS011;59091;47.446;19.148;2024-03-02T12:20:28;17.88;;;12.18;;
71303;SDS011;59091;47.446;19.148;2024-03-02T12:22:57;15.00;;;11.07;;
71303;SDS011;59091;47.446;19.148;2024-03-02T12:25:24;15.02;;;11.85;;
71303;SDS011;59091;47.446;19.148;2024-03-02T12:27:50;17.13;;;12.20;;
71303;SDS011;59091;47.446;19.148;2024-03-02T12:30:18;15.32;;;12.05;;
71303;SDS011;59091;47.446;19.148;2024-03-02T12:32:45;17.65;;;12.82;;
71303;SDS011;59091;47.446;19.148;2024-03-02T12:35:10;19.15;;;13.07;;
71303;SDS011;59091;47.446;19.148;2024-03-02T12:37:43;18.88;;;13.40;;
71303;SDS011;59091;47.446;19.148;2024-03-02T12:40:12;18.90;;;13.15;;
71303;SDS011;59091;47.446;19.148;2024-03-02T12:42:39;18.80;;;13.55;;
71303;SDS011;59091;47.446;19.148;2024-03-02T12:45:07;18.83;;;13.15;;
71303;SDS011;59091;47.446;19.148;2024-03-02T12:47:36;19.33;;;13.25;;
71303;SDS011;59091;47.446;19.148;2024-03-02T12:50:03;19.52;;;13.70;;
71303;SDS011;59091;47.446;19.148;2024-03-02T12:52:29;19.48;;;14.27;;
71303;SDS011;59091;47.446;19.148;2024-03-02T12:54:55;19.70;;;13.35;;
71303;SDS011;59091;47.446;19.148;2024-03-02T12:57:26;21.83;;;14.35;;
71303;SDS011;59091;47.446;19.148;2024-03-02T12:59:57;18.83;;;13.07;;
71303;SDS011;59091;47.446;19.148;2024-03-02T13:02:41;18.00;;;12.00;;
71303;SDS011;59091;47.446;19.148;2024-03-02T13:05:07;20.35;;;12.07;;
71303;SDS011;59091;47.446;19.148;2024-03-02T13:07:39;17.70;;;11.73;;
71303;SDS011;59091;47.446;19.148;2024-03-02T13:10:06;19.23;;;12.25;;
71303;SDS011;59091;47.446;19.148;2024-03-02T13:12:35;20.27;;;12.10;;
71303;SDS011;59091;47.446;19.148;2024-03-02T13:15:01;20.25;;;12.07;;
71303;SDS011;59091;47.446;19.148;2024-03-02T13:17:28;24.13;;;12.25;;
71303;SDS011;59091;47.446;19.148;2024-03-02T13:19:57;19.85;;;12.15;;
71303;SDS011;59091;47.446;19.148;2024-03-02T13:22:24;23.13;;;12.57;;
71303;SDS011;59091;47.446;19.148;2024-03-02T13:24:50;24.45;;;12.57;;
71303;SDS011;59091;47.446;19.148;2024-03-02T13:27:16;20.38;;;12.32;;
71303;SDS011;59091;47.446;19.148;2024-03-02T13:29:45;22.10;;;13.30;;
71303;SDS011;59091;47.446;19.148;2024-03-02T13:32:16;22.38;;;12.95;;
71303;SDS011;59091;47.446;19.148;2024-03-02T13:34:42;26.15;;;14.02;;
71303;SDS011;59091;47.446;19.148;2024-03-02T13:37:08;31.67;;;15.85;;
71303;SDS011;59091;47.446;19.148;2024-03-02T13:39:34;30.15;;;15.10;;
71303;SDS011;59091;47.446;19.148;2024-03-02T13:42:05;28.40;;;15.45;;
71303;SDS011;59091;47.446;19.148;2024-03-02T13:44:33;27.67;;;14.63;;
71303;SDS011;59091;47.446;19.148;2024-03-02T13:46:59;29.45;;;14.82;;
71303;SDS011;59091;47.446;19.148;2024-03-02T13:49:25;30.17;;;14.40;;
71303;SDS011;59091;47.446;19.148;2024-03-02T13:51:58;26.95;;;14.43;;
71303;SDS011;59091;47.446;19.148;2024-03-02T13:54:25;25.17;;;13.00;;
71303;SDS011;59091;47.446;19.148;2024-03-02T13:56:51;26.63;;;14.52;;
71303;SDS011;59091;47.446;19.148;2024-03-02T13:59:17;25.10;;;14.38;;
71303;SDS011;59091;47.446;19.148;2024-03-02T14:01:43;26.42;;;14.80;;
71303;SDS011;59091;47.446;19.148;2024-03-02T14:04:09;28.48;;;15.93;;
71303;SDS011;59091;47.446;19.148;2024-03-02T14:06:35;22.25;;;13.80;;
71303;SDS011;59091;47.446;19.148;2024-03-02T14:09:00;29.33;;;15.25;;
71303;SDS011;59091;47.446;19.148;2024-03-02T14:11:25;22.95;;;14.68;;